Aérodrome :
LOGIN :

S'inscrire | Disclaimer

   EN    FR    IT 

 










Légende :    VFR   VFR Marginal   IFR   IFR Intensif   IFR Très Intensif
Visi : 
Plafond : 
>= 8 km
>= 3000ft
5 à 8 km
1000 à 3000 ft
1500m à 5 km
500 à 1000 ft
800 à 1500m
200 à 500 ft
< 800m
< 200 ft
Symboles :   Orages  Brouillard  Fortes neiges  Fortes précipitations  Vent > 20 kt
SIGMETs :   Divers  Orages  Givrage  Turbulence  Onde Orograph.  Cendres Volcan.







- Altitude de l'aérodrome : 268 ft
- Code IATA : BFS
- Voir les cartes d'approche


EGAA - Belfast Aldergrove

DERNIER METAR :
  • 192220Z 19012KT 9999 -RA BKN008 OVC017 09/08 Q1005

METARs EXPIRÉS :
  • 192150Z 19010KT 9999 -RA BKN008 OVC012 09/08 Q1005
  • 192120Z 19011KT 9999 -RA SCT008 BKN012 09/08 Q1005
  • 192050Z 19011KT 9999 -RA SCT007 BKN010 08/07 Q1005
  • 192020Z 19010KT 9999 -RA BKN008 BKN017 08/07 Q1005
  • 191950Z 18012KT 9999 -RA SCT007 BKN011 08/07 Q1005 RERA

TAF AMD TAF EGAA
Valide du 19 à 22h jusqu'au 20 à 18h UTC


192216Z 1922/2018 19012KT 9999 SCT008 BKN012
TEMPO 1922/2014 7000 -RADZ BKN008
PROB30
TEMPO 1922/2010 19015G25KT SCT012 BKN025
BECMG 2014/2017 FEW015 SCT035
Pas de NOTAMs connus pour ce terrain.



MET'MAP, la Météo Aéronautique d'un coup d'oeil ! - Copyright ORBIFLY Décembre 2007 - Disclaimer

ORBIFLY MET'MAP TEAM :

Programmation & Développement : Alexandra Zaïnal
Conception & Développement : Baudouin d'Aumeries
Co-Programmation & Développement : Marc-Olivier Méhu
Soutien technique & logistique : Manuel Goepfert

Contact : metmap@orbifly.com




SOURCES & CREDITS :

   NOAA